Terminal Aerodrome Forecast
Issued by NWS

Home | Current Version | Previous Version | Text Only | Print | Product List | Glossary On
Versions: 1 2 3 4 5 6 7 8 9 10 11 12 13 14 15 16 17 18 19 20 21 22 23 24 25 26 27 28 29
000
FTUS46 KSEW 310308 AAA
TAFSEA
TAF AMD
KSEA 310308Z 3103/0106 22012KT P6SM BKN080 BKN120
     FM310800 20008KT P6SM BKN060 OVC100
     FM311200 16008KT P6SM BKN030 OVC060
      TEMPO 3114/3116 3SM -RA BR BKN020 OVC040
     FM311800 20012KT P6SM -RA BKN035 OVC100
     FM010000 20010KT P6SM -SHRA BKN040 BKN100=

USA.gov is the U.S. government's official web portal to all federal, state and local government web resources and services.